Time;durP1;ratioP1;P1;durP2;ratioP2;P2;SDS_P1;SDS_P2;PMS_P1;PMS_P2;Temp;Humidity;BMP_temperature;BMP_pressure;BME280_temperature;BME280_humidity;BME280_pressure;Samples;Min_cycle;Max_cycle;Signal;HPM_P1;HPM_P2
2023/10/22 00:01:45;;;;;;;0.00;0.00;;;;;;;7.02;100.00;98580.72;4945378;28;20027;-76
2023/10/22 00:04:10;;;;;;;0.00;0.00;;;;;;;6.99;100.00;98593.81;4942979;29;20038;-76
2023/10/22 00:06:36;;;;;;;0.00;0.00;;;;;;;6.88;100.00;98596.88;4937476;28;20027;-75
2023/10/22 00:09:01;;;;;;;0.00;0.00;;;;;;;6.81;100.00;98589.88;4933278;29;20519;-75
2023/10/22 00:11:27;;;;;;;0.00;0.00;;;;;;;6.76;100.00;98603.53;4954524;28;20035;-76
2023/10/22 00:13:57;;;;;;;0.00;0.00;;;;;;;6.74;100.00;98608.41;4924863;29;20035;-77
2023/10/22 00:16:22;;;;;;;0.00;0.00;;;;;;;6.62;100.00;98594.41;4923604;29;20054;-77
2023/10/22 00:18:48;;;;;;;0.00;0.00;;;;;;;6.75;100.00;98617.41;4945127;28;20134;-76
2023/10/22 00:21:13;;;;;;;0.00;0.00;;;;;;;6.73;100.00;98633.16;4939256;29;20133;-76
2023/10/22 00:23:39;;;;;;;0.00;0.00;;;;;;;6.68;100.00;98636.72;4939739;28;20026;-77
2023/10/22 00:26:05;;;;;;;0.00;0.00;;;;;;;6.68;100.00;98644.06;4925738;29;20123;-76
2023/10/22 00:28:31;;;;;;;0.00;0.00;;;;;;;6.63;100.00;98645.72;4957967;28;20055;-77
2023/10/22 00:30:56;;;;;;;0.00;0.00;;;;;;;6.59;100.00;98649.31;4942490;28;20054;-77
2023/10/22 00:33:22;;;;;;;0.00;0.00;;;;;;;6.52;100.00;98641.47;4943923;28;20043;-76
2023/10/22 00:35:58;;;;;;;0.00;0.00;;;;;;;6.50;100.00;98650.97;4951761;28;20031;-76
2023/10/22 00:38:24;;;;;;;0.00;0.00;;;;;;;6.41;100.00;98646.16;4952183;28;20386;-77
2023/10/22 00:40:49;;;;;;;0.00;0.00;;;;;;;6.46;100.00;98656.97;4946183;29;20039;-77
2023/10/22 00:43:15;;;;;;;0.00;0.00;;;;;;;6.48;100.00;98659.41;4929900;29;20363;-77
2023/10/22 00:45:40;;;;;;;0.00;0.00;;;;;;;6.47;100.00;98655.88;4915957;28;20024;-77
2023/10/22 00:48:08;;;;;;;0.00;0.00;;;;;;;6.45;100.00;98655.38;4938171;29;20102;-76
2023/10/22 00:50:34;;;;;;;0.00;0.00;;;;;;;6.51;100.00;98663.47;4943707;28;20114;-78
2023/10/22 00:53:00;;;;;;;0.00;0.00;;;;;;;6.50;100.00;98667.28;4919599;29;20048;-77
2023/10/22 00:55:26;;;;;;;0.10;0.10;;;;;;;6.57;100.00;98674.03;4946826;29;20533;-77
2023/10/22 00:57:52;;;;;;;0.00;0.00;;;;;;;6.53;100.00;98667.53;4947950;28;20027;-78
2023/10/22 01:00:19;;;;;;;0.00;0.00;;;;;;;6.68;100.00;98685.63;4922693;29;20087;-77
2023/10/22 01:02:45;;;;;;;0.00;0.00;;;;;;;6.68;100.00;98676.66;4940332;29;20019;-77
2023/10/22 01:05:10;;;;;;;0.10;0.10;;;;;;;6.70;100.00;98683.44;4937155;29;20031;-77
2023/10/22 01:07:36;;;;;;;0.00;0.00;;;;;;;6.75;100.00;98680.69;4936764;29;20078;-77
2023/10/22 01:10:03;;;;;;;0.00;0.00;;;;;;;6.89;100.00;98691.72;4929574;29;20028;-76
2023/10/22 01:12:38;;;;;;;0.00;0.00;;;;;;;6.88;100.00;98683.81;4936233;28;20363;-76
2023/10/22 01:15:05;;;;;;;0.00;0.00;;;;;;;6.84;100.00;98688.22;4944626;28;20082;-77
2023/10/22 01:17:30;;;;;;;0.00;0.00;;;;;;;6.73;100.00;98696.47;4950956;28;20023;-76
2023/10/22 01:19:55;;;;;;;0.10;0.10;;;;;;;6.63;100.00;98691.09;4941465;28;20093;-76
2023/10/22 01:22:21;;;;;;;0.00;0.00;;;;;;;6.58;100.00;98696.56;4933666;29;20757;-77
2023/10/22 01:24:46;;;;;;;0.00;0.00;;;;;;;6.57;100.00;98705.78;4941390;28;20104;-76
2023/10/22 01:27:12;;;;;;;0.00;0.00;;;;;;;6.56;100.00;98709.63;4943486;29;20028;-76
2023/10/22 01:29:37;;;;;;;0.00;0.00;;;;;;;6.48;100.00;98708.28;4924247;29;20077;-76
2023/10/22 01:32:05;;;;;;;0.00;0.00;;;;;;;6.42;100.00;98696.63;4920243;29;21227;-75
2023/10/22 01:34:30;;;;;;;0.00;0.00;;;;;;;6.40;100.00;98701.56;4947826;28;20073;-75
2023/10/22 01:36:56;;;;;;;0.00;0.00;;;;;;;6.39;100.00;98716.22;4940670;29;20058;-77
2023/10/22 01:39:22;;;;;;;0.00;0.00;;;;;;;6.36;100.00;98721.41;4944312;28;20024;-77
2023/10/22 01:41:48;;;;;;;0.00;0.00;;;;;;;6.26;100.00;98711.41;4961910;28;20546;-76
2023/10/22 01:44:13;;;;;;;0.10;0.10;;;;;;;6.31;100.00;98730.38;4910691;29;20134;-76
2023/10/22 01:46:39;;;;;;;0.00;0.00;;;;;;;6.25;100.00;98726.06;4946270;28;20023;-76
2023/10/22 01:49:04;;;;;;;0.00;0.00;;;;;;;6.21;100.00;98722.28;4940952;28;20037;-76
2023/10/22 01:51:30;;;;;;;0.08;0.08;;;;;;;6.23;100.00;98728.25;4947540;28;20024;-76
2023/10/22 01:53:55;;;;;;;0.10;0.10;;;;;;;6.08;100.00;98710.13;4942974;29;20047;-75
2023/10/22 01:56:20;;;;;;;0.00;0.00;;;;;;;6.10;100.00;98727.78;4946047;29;20031;-77
2023/10/22 01:58:47;;;;;;;0.00;0.00;;;;;;;6.10;100.00;98730.50;4941750;28;20051;-77
2023/10/22 02:01:13;;;;;;;0.00;0.00;;;;;;;6.01;100.00;98732.13;4942181;28;20164;-76
2023/10/22 02:03:40;;;;;;;0.00;0.00;;;;;;;6.02;100.00;98741.91;4944093;29;20793;-75
2023/10/22 02:06:13;;;;;;;0.00;0.00;;;;;;;5.92;100.00;98722.91;4940514;29;20016;-75
2023/10/22 02:08:39;;;;;;;0.00;0.00;;;;;;;5.98;100.00;98735.41;4953702;28;20043;-76
2023/10/22 02:11:05;;;;;;;0.00;0.00;;;;;;;5.95;100.00;98735.94;4949025;28;20027;-77
2023/10/22 02:13:30;;;;;;;0.10;0.10;;;;;;;5.95;100.00;98738.66;4957178;28;20027;-77
2023/10/22 02:15:56;;;;;;;0.00;0.00;;;;;;;5.96;100.00;98751.13;4914582;29;20039;-77
2023/10/22 02:18:21;;;;;;;0.00;0.00;;;;;;;5.98;100.00;98754.41;4943832;29;20019;-77
2023/10/22 02:21:00;;;;;;;0.00;0.00;;;;;;;6.01;100.00;98774.75;4931688;29;20046;-77
2023/10/22 02:23:29;;;;;;;0.00;0.00;;;;;;;5.94;100.00;98764.97;4958098;28;20032;-77
2023/10/22 02:25:55;;;;;;;0.00;0.00;;;;;;;6.01;100.00;98772.03;4929735;28;20035;-78
2023/10/22 02:28:20;;;;;;;0.00;0.00;;;;;;;6.00;100.00;98765.81;4929299;29;20489;-76
2023/10/22 02:30:50;;;;;;;0.10;0.10;;;;;;;6.07;100.00;98769.00;4944039;28;20042;-77
2023/10/22 02:33:16;;;;;;;0.00;0.00;;;;;;;6.13;100.00;98775.22;4927929;29;20043;-77
2023/10/22 02:35:54;;;;;;;0.00;0.00;;;;;;;6.16;100.00;98787.44;4930995;29;20089;-76
2023/10/22 02:38:19;;;;;;;0.00;0.00;;;;;;;5.98;100.00;98757.09;4956575;28;21168;-76
2023/10/22 02:40:50;;;;;;;0.00;0.00;;;;;;;6.11;100.00;98791.78;4942329;28;20047;-76
2023/10/22 02:43:16;;;;;;;0.00;0.00;;;;;;;6.05;100.00;98784.78;4943617;29;20043;-76
2023/10/22 02:45:52;;;;;;;0.00;0.00;;;;;;;6.02;100.00;98782.59;4946232;28;20066;-76
2023/10/22 02:48:17;;;;;;;0.00;0.00;;;;;;;5.95;100.00;98788.28;4939358;29;20082;-75
2023/10/22 02:50:43;;;;;;;0.00;0.00;;;;;;;5.85;100.00;98792.94;4938951;28;20031;-76
2023/10/22 02:53:09;;;;;;;0.00;0.00;;;;;;;5.90;100.00;98806.50;4945068;28;20162;-76
2023/10/22 02:55:34;;;;;;;0.00;0.00;;;;;;;5.91;100.00;98797.25;4942997;28;20162;-76
2023/10/22 02:58:00;;;;;;;0.00;0.00;;;;;;;5.92;100.00;98801.59;4930168;29;20399;-76
2023/10/22 03:00:25;;;;;;;0.00;0.00;;;;;;;5.89;100.00;98800.25;4933519;28;20035;-76
2023/10/22 03:02:50;;;;;;;0.00;0.00;;;;;;;5.84;100.00;98802.16;4917379;29;20038;-75
2023/10/22 03:05:16;;;;;;;0.00;0.00;;;;;;;5.77;100.00;98803.25;4925601;29;20031;-75
2023/10/22 03:07:41;;;;;;;0.00;0.00;;;;;;;5.81;100.00;98803.53;4924448;29;20019;-75
2023/10/22 03:10:10;;;;;;;0.00;0.00;;;;;;;5.76;100.00;98807.03;4947441;29;20027;-76
2023/10/22 03:12:36;;;;;;;0.00;0.00;;;;;;;5.59;100.00;98787.53;4930035;28;20540;-76
2023/10/22 03:15:03;;;;;;;0.00;0.00;;;;;;;5.77;100.00;98819.53;4945406;29;20042;-76
2023/10/22 03:17:29;;;;;;;0.00;0.00;;;;;;;5.74;100.00;98824.69;4941667;28;20034;-76
2023/10/22 03:19:57;;;;;;;0.00;0.00;;;;;;;5.67;100.00;98824.97;4927038;29;20027;-76
2023/10/22 03:22:26;;;;;;;0.00;0.00;;;;;;;5.52;100.00;98809.53;4945471;29;20405;-76
2023/10/22 03:24:51;;;;;;;0.00;0.00;;;;;;;5.69;100.00;98833.63;4942948;28;21336;-76
2023/10/22 03:27:17;;;;;;;0.00;0.00;;;;;;;5.69;100.00;98833.63;4938842;28;20032;-75
2023/10/22 03:29:44;;;;;;;0.00;0.00;;;;;;;5.74;100.00;98835.56;4940100;29;20024;-75
2023/10/22 03:32:10;;;;;;;0.00;0.00;;;;;;;5.77;100.00;98840.44;4936633;29;20023;-76
2023/10/22 03:34:36;;;;;;;0.00;0.00;;;;;;;5.87;100.00;98845.84;4932140;28;20035;-76
2023/10/22 03:37:04;;;;;;;0.00;0.00;;;;;;;5.92;100.00;98842.31;4936245;28;20023;-75
2023/10/22 03:39:33;;;;;;;0.00;0.00;;;;;;;6.00;100.00;98843.66;4939664;29;20024;-76
2023/10/22 03:41:59;;;;;;;0.00;0.00;;;;;;;6.05;100.00;98847.19;4939505;29;20056;-75
2023/10/22 03:44:24;;;;;;;0.00;0.00;;;;;;;6.06;100.00;98851.53;4944779;29;20079;-76
2023/10/22 03:46:57;;;;;;;0.00;0.00;;;;;;;6.02;100.00;98842.31;4940822;29;20533;-76
2023/10/22 03:49:23;;;;;;;0.00;0.00;;;;;;;6.16;100.00;98858.00;4944795;28;20486;-76
2023/10/22 03:51:48;;;;;;;0.10;0.10;;;;;;;6.05;100.00;98841.75;4940871;28;20042;-76
2023/10/22 03:54:14;;;;;;;0.10;0.10;;;;;;;6.23;100.00;98863.97;4939138;28;20562;-76
2023/10/22 03:56:39;;;;;;;0.00;0.00;;;;;;;6.28;100.00;98870.19;4918692;29;20041;-75
2023/10/22 03:59:05;;;;;;;0.00;0.00;;;;;;;6.29;100.00;98871.00;4928166;28;20027;-75
2023/10/22 04:01:30;;;;;;;0.00;0.00;;;;;;;6.32;100.00;98878.59;4933000;29;20122;-76
2023/10/22 04:03:55;;;;;;;0.00;0.00;;;;;;;6.33;100.00;98879.44;4930522;29;20969;-75
2023/10/22 04:06:21;;;;;;;0.00;0.00;;;;;;;6.27;100.00;98881.34;4938935;28;20023;-76
2023/10/22 04:08:46;;;;;;;0.10;0.10;;;;;;;6.32;100.00;98889.47;4934921;28;20863;-76
2023/10/22 04:11:12;;;;;;;0.08;0.08;;;;;;;6.23;100.00;98888.41;4944427;29;20039;-76
2023/10/22 04:13:37;;;;;;;0.00;0.00;;;;;;;6.25;100.00;98897.06;4943426;28;20035;-76
2023/10/22 04:16:03;;;;;;;0.00;0.00;;;;;;;6.17;100.00;98892.22;4946142;28;20027;-75
2023/10/22 04:18:28;;;;;;;0.00;0.00;;;;;;;6.18;100.00;98900.09;4947257;28;20035;-75
2023/10/22 04:20:53;;;;;;;0.00;0.00;;;;;;;6.10;100.00;98882.47;4926571;28;20047;-76
2023/10/22 04:23:19;;;;;;;0.00;0.00;;;;;;;6.18;100.00;98905.50;4932018;29;20035;-75
2023/10/22 04:25:45;;;;;;;0.00;0.00;;;;;;;6.11;100.00;98894.94;4927232;29;20035;-76
2023/10/22 04:28:12;;;;;;;0.08;0.08;;;;;;;6.19;100.00;98911.75;4950042;29;20027;-75
2023/10/22 04:30:43;;;;;;;0.00;0.00;;;;;;;6.07;100.00;98904.69;4930328;29;20038;-76
2023/10/22 04:33:09;;;;;;;0.00;0.00;;;;;;;6.18;100.00;98915.56;4947681;28;20019;-74
2023/10/22 04:35:35;;;;;;;0.00;0.00;;;;;;;6.19;100.00;98919.91;4935925;29;20027;-75
2023/10/22 04:38:03;;;;;;;0.00;0.00;;;;;;;6.14;100.00;98909.06;4959005;28;20042;-76
2023/10/22 04:40:33;;;;;;;0.00;0.00;;;;;;;6.05;100.00;98906.88;4950844;28;20028;-76
2023/10/22 04:42:58;;;;;;;0.00;0.00;;;;;;;6.01;100.00;98911.22;4930160;29;20035;-75
2023/10/22 04:45:24;;;;;;;0.00;0.00;;;;;;;6.10;100.00;98931.31;4952036;28;20030;-76
2023/10/22 04:47:49;;;;;;;0.00;0.00;;;;;;;6.09;100.00;98932.41;4953028;28;20133;-75
2023/10/22 04:50:15;;;;;;;0.00;0.00;;;;;;;6.08;100.00;98944.34;4944037;28;20502;-76
2023/10/22 04:52:41;;;;;;;0.00;0.00;;;;;;;6.10;100.00;98950.31;4949354;28;20561;-76
2023/10/22 04:55:06;;;;;;;0.00;0.00;;;;;;;6.01;100.00;98949.22;4909252;29;20074;-75
2023/10/22 04:57:32;;;;;;;0.10;0.10;;;;;;;6.05;100.00;98953.03;4893827;29;20056;-76
2023/10/22 04:59:57;;;;;;;0.00;0.00;;;;;;;6.10;100.00;98968.47;4916038;29;20494;-75
2023/10/22 05:02:23;;;;;;;0.00;0.00;;;;;;;6.09;100.00;98962.25;4925968;29;20044;-78
2023/10/22 05:04:52;;;;;;;0.00;0.00;;;;;;;6.11;100.00;98961.97;4930811;29;20034;-75
2023/10/22 05:07:21;;;;;;;0.00;0.00;;;;;;;6.00;100.00;98963.06;4910148;29;20479;-77
2023/10/22 05:09:49;;;;;;;0.00;0.00;;;;;;;5.97;100.00;98967.13;4916503;29;20046;-76
2023/10/22 05:12:15;;;;;;;0.00;0.00;;;;;;;5.78;100.00;98950.53;4926896;29;20019;-76
2023/10/22 05:14:40;;;;;;;0.00;0.00;;;;;;;5.87;100.00;98983.38;4907569;29;20104;-77
2023/10/22 05:17:06;;;;;;;0.00;0.00;;;;;;;5.81;100.00;98988.00;4894214;29;20019;-76
2023/10/22 05:19:32;;;;;;;0.00;0.00;;;;;;;5.79;100.00;98989.34;4908675;29;20079;-75
2023/10/22 05:22:00;;;;;;;0.00;0.00;;;;;;;5.71;100.00;98993.38;4915793;29;20028;-75
2023/10/22 05:24:26;;;;;;;0.00;0.00;;;;;;;5.71;100.00;98996.94;4905891;29;20032;-76
2023/10/22 05:26:51;;;;;;;0.05;0.05;;;;;;;5.67;100.00;98993.13;4928739;29;20039;-76
2023/10/22 05:29:17;;;;;;;0.00;0.00;;;;;;;5.67;100.00;99000.47;4909166;29;20045;-76
2023/10/22 05:31:42;;;;;;;0.05;0.05;;;;;;;5.65;100.00;98995.31;4911402;29;20020;-77
2023/10/22 05:34:08;;;;;;;0.10;0.10;;;;;;;5.66;100.00;99002.34;4908396;29;20467;-77
2023/10/22 05:36:34;;;;;;;0.00;0.00;;;;;;;5.62;100.00;99001.22;4909080;29;20074;-77
2023/10/22 05:39:01;;;;;;;0.00;0.00;;;;;;;5.51;100.00;98999.59;4909063;29;20053;-76
2023/10/22 05:41:27;;;;;;;0.00;0.00;;;;;;;5.49;100.00;98990.91;4904186;29;20106;-76
2023/10/22 05:44:03;;;;;;;0.00;0.00;;;;;;;5.53;100.00;98997.44;4911705;29;20127;-75
2023/10/22 05:46:32;;;;;;;0.00;0.00;;;;;;;5.57;100.00;98993.09;4906268;29;20100;-75
2023/10/22 05:48:58;;;;;;;0.00;0.00;;;;;;;5.65;100.00;99000.72;4915642;29;20074;-76
2023/10/22 05:51:24;;;;;;;0.00;0.00;;;;;;;5.70;100.00;98999.91;4926491;29;20515;-76
2023/10/22 05:53:50;;;;;;;0.00;0.00;;;;;;;5.79;100.00;99016.47;4924112;29;20047;-75
2023/10/22 05:56:23;;;;;;;0.00;0.00;;;;;;;5.83;100.00;99017.56;4948658;29;20027;-76
2023/10/22 05:58:49;;;;;;;0.10;0.10;;;;;;;5.93;100.00;99014.88;4941400;28;20130;-76
2023/10/22 06:01:14;;;;;;;0.00;0.00;;;;;;;6.03;100.00;99020.34;4933569;28;20337;-76
2023/10/22 06:03:40;;;;;;;0.00;0.00;;;;;;;6.18;100.00;99035.00;4927103;29;20038;-75
2023/10/22 06:06:06;;;;;;;0.00;0.00;;;;;;;6.16;100.00;99023.59;4932350;28;20392;-75
2023/10/22 06:08:33;;;;;;;0.00;0.00;;;;;;;6.14;100.00;99029.28;4940351;29;20086;-77
2023/10/22 06:11:03;;;;;;;0.00;0.00;;;;;;;6.15;100.00;99030.09;4945104;28;20072;-76
2023/10/22 06:13:29;;;;;;;0.00;0.00;;;;;;;6.16;100.00;99042.59;4944856;29;20027;-75
2023/10/22 06:15:56;;;;;;;0.00;0.00;;;;;;;6.17;100.00;99041.50;4941110;29;20070;-77
2023/10/22 06:18:21;;;;;;;0.00;0.00;;;;;;;6.09;100.00;99038.25;4944197;28;20027;-76
2023/10/22 06:20:47;;;;;;;0.00;0.00;;;;;;;5.98;100.00;99036.59;4939643;28;20027;-76
2023/10/22 06:23:12;;;;;;;0.05;0.05;;;;;;;6.00;100.00;99048.00;4947567;28;20030;-76
2023/10/22 06:25:37;;;;;;;0.00;0.00;;;;;;;5.89;100.00;99049.06;4942794;28;20034;-76
2023/10/22 06:28:03;;;;;;;0.00;0.00;;;;;;;5.71;100.00;99053.88;4942543;29;20027;-76
2023/10/22 06:30:29;;;;;;;0.00;0.00;;;;;;;5.62;100.00;99066.31;4947300;28;20497;-74
2023/10/22 06:32:56;;;;;;;0.00;0.00;;;;;;;5.45;100.00;99061.13;4923085;29;20044;-75
2023/10/22 06:35:23;;;;;;;0.10;0.10;;;;;;;5.39;100.00;99067.63;4929115;29;20043;-76
2023/10/22 06:37:52;;;;;;;0.00;0.00;;;;;;;5.31;100.00;99066.22;4943951;28;20020;-75
2023/10/22 06:40:22;;;;;;;0.00;0.00;;;;;;;5.20;100.00;99064.56;4957965;28;20384;-76
2023/10/22 06:42:48;;;;;;;0.00;0.00;;;;;;;5.12;100.00;99062.34;4922359;29;20062;-75
2023/10/22 06:45:15;;;;;;;0.00;0.00;;;;;;;5.10;100.00;99075.34;4922944;29;20034;-75
2023/10/22 06:47:40;;;;;;;0.05;0.05;;;;;;;5.04;100.00;99069.88;4963289;28;20031;-76
2023/10/22 06:50:07;;;;;;;0.00;0.00;;;;;;;5.02;100.00;99074.75;4935939;29;20505;-76
2023/10/22 06:52:34;;;;;;;0.00;0.00;;;;;;;5.00;100.00;99076.91;4927545;28;20733;-76
2023/10/22 06:55:00;;;;;;;0.00;0.00;;;;;;;5.10;100.00;99086.19;4894928;29;20027;-75
2023/10/22 06:57:26;;;;;;;0.00;0.00;;;;;;;5.00;100.00;99081.50;4922978;29;20099;-74
2023/10/22 06:59:52;;;;;;;0.00;0.00;;;;;;;5.13;100.00;99101.91;4923812;29;20031;-76
2023/10/22 07:02:18;;;;;;;0.00;0.00;;;;;;;5.05;100.00;99090.50;4922441;29;20044;-76
2023/10/22 07:04:44;;;;;;;0.00;0.00;;;;;;;5.13;100.00;99101.91;4911602;29;20050;-75
2023/10/22 07:07:10;;;;;;;0.00;0.00;;;;;;;5.10;100.00;99108.66;4907716;29;20032;-75
2023/10/22 07:09:36;;;;;;;0.10;0.10;;;;;;;5.14;100.00;99098.09;4891485;29;20063;-76
2023/10/22 07:12:03;;;;;;;0.00;0.00;;;;;;;5.33;100.00;99114.75;4924427;29;20375;-76
2023/10/22 07:14:28;;;;;;;0.00;0.00;;;;;;;5.44;100.00;99129.19;4923643;29;20501;-76
2023/10/22 07:16:54;;;;;;;0.00;0.00;;;;;;;5.41;100.00;99128.59;4926157;29;20059;-76
2023/10/22 07:19:19;;;;;;;0.00;0.00;;;;;;;5.35;100.00;99131.56;4907004;29;20024;-75
2023/10/22 07:21:44;;;;;;;0.00;0.00;;;;;;;5.37;100.00;99141.09;4911003;29;20032;-77
2023/10/22 07:24:10;;;;;;;0.00;0.00;;;;;;;5.37;100.00;99138.38;4896555;29;20063;-76
2023/10/22 07:26:35;;;;;;;0.03;0.03;;;;;;;5.41;100.00;99147.59;4903669;29;20035;-76
2023/10/22 07:29:01;;;;;;;0.00;0.00;;;;;;;5.51;100.00;99156.88;4905885;29;21170;-75
2023/10/22 07:31:26;;;;;;;0.00;0.00;;;;;;;5.56;100.00;99148.75;4908972;29;20063;-76
2023/10/22 07:33:51;;;;;;;0.10;0.10;;;;;;;5.62;100.00;99153.09;4897183;29;20687;-74
2023/10/22 07:36:17;;;;;;;0.00;0.00;;;;;;;5.75;100.00;99163.50;4917852;29;20448;-75
2023/10/22 07:38:42;;;;;;;0.00;0.00;;;;;;;5.70;100.00;99149.09;4901372;29;20039;-76
2023/10/22 07:41:15;;;;;;;0.00;0.00;;;;;;;5.80;100.00;99164.56;4905248;29;20535;-76
2023/10/22 07:43:40;;;;;;;0.00;0.00;;;;;;;5.85;100.00;99167.31;4919702;29;20020;-76
2023/10/22 07:46:09;;;;;;;0.00;0.00;;;;;;;5.91;100.00;99174.41;4924816;29;20051;-75
2023/10/22 07:48:34;;;;;;;0.00;0.00;;;;;;;6.01;100.00;99177.16;4901443;29;20387;-74
2023/10/22 07:51:12;;;;;;;0.00;0.00;;;;;;;6.21;100.00;99194.63;4904183;29;20027;-74
2023/10/22 07:53:45;;;;;;;0.10;0.10;;;;;;;6.13;100.00;99157.13;4913757;29;20407;-74
2023/10/22 07:56:11;;;;;;;0.00;0.00;;;;;;;6.49;100.00;99189.78;4924140;29;20394;-75
2023/10/22 07:58:38;;;;;;;0.00;0.00;;;;;;;7.04;100.00;99198.22;4900579;29;20046;-74
2023/10/22 08:01:06;;;;;;;0.00;0.00;;;;;;;9.00;100.00;99211.88;4907865;29;20038;-75
2023/10/22 08:03:32;;;;;;;0.00;0.00;;;;;;;11.57;100.00;99211.25;4888248;29;20092;-75
2023/10/22 08:05:58;;;;;;;0.00;0.00;;;;;;;13.51;88.71;99203.69;4919180;29;20042;-74
2023/10/22 08:08:25;;;;;;;0.00;0.00;;;;;;;13.26;84.09;99211.44;4925362;29;20052;-74
2023/10/22 08:10:58;;;;;;;0.00;0.00;;;;;;;12.95;83.88;99214.94;4900533;29;20676;-74
2023/10/22 08:13:24;;;;;;;0.00;0.00;;;;;;;12.50;85.35;99220.34;4927180;29;20431;-75
2023/10/22 08:15:50;;;;;;;0.00;0.00;;;;;;;13.19;84.79;99214.63;4918854;29;20030;-74
2023/10/22 08:18:16;;;;;;;0.00;0.00;;;;;;;14.46;80.76;99205.13;4924526;29;20015;-74
2023/10/22 08:20:41;;;;;;;0.10;0.10;;;;;;;15.92;76.14;99222.13;4879739;29;20124;-75
2023/10/22 08:23:07;;;;;;;0.00;0.00;;;;;;;16.74;71.20;99222.59;4903400;29;20043;-73
2023/10/22 08:25:32;;;;;;;0.00;0.00;;;;;;;18.04;68.40;99232.69;4918326;29;20034;-74
2023/10/22 08:27:58;;;;;;;0.10;0.10;;;;;;;19.94;61.32;99233.03;4887576;29;20024;-74
2023/10/22 08:30:24;;;;;;;0.00;0.00;;;;;;;20.91;57.77;99215.84;4909312;29;20056;-73
2023/10/22 08:32:50;;;;;;;0.00;0.00;;;;;;;22.21;54.51;99230.13;4902727;29;20115;-74
2023/10/22 08:35:16;;;;;;;0.00;0.00;;;;;;;23.35;51.61;99246.84;4919935;29;20642;-73
2023/10/22 08:37:41;;;;;;;0.00;0.00;;;;;;;22.67;52.63;99230.03;4915986;29;20038;-75
2023/10/22 08:40:12;;;;;;;0.00;0.00;;;;;;;23.53;51.91;99241.44;4908252;29;20035;-74
2023/10/22 08:42:47;;;;;;;0.00;0.00;;;;;;;25.41;47.62;99249.16;4916795;29;20083;-75
2023/10/22 08:45:13;;;;;;;0.00;0.00;;;;;;;25.87;46.08;99253.22;4899906;29;20130;-74
2023/10/22 08:47:47;;;;;;;0.00;0.00;;;;;;;26.13;46.01;99265.28;4925317;29;20555;-74
2023/10/22 08:50:15;;;;;;;0.00;0.00;;;;;;;26.25;45.32;99267.66;4921316;29;20094;-74
2023/10/22 08:52:41;;;;;;;0.00;0.00;;;;;;;26.45;45.54;99258.84;4924864;28;20471;-74
2023/10/22 08:55:07;;;;;;;0.00;0.00;;;;;;;27.34;44.29;99271.06;4922621;29;20039;-74
2023/10/22 08:57:32;;;;;;;0.00;0.00;;;;;;;28.50;42.00;99259.81;4922111;29;20024;-73
2023/10/22 09:00:09;;;;;;;0.00;0.00;;;;;;;29.99;39.63;99251.94;4914418;29;20031;-73
2023/10/22 09:02:35;;;;;;;0.00;0.00;;;;;;;31.46;37.31;99270.97;4921443;29;20031;-77
2023/10/22 09:05:01;;;;;;;0.00;0.00;;;;;;;32.65;35.42;99273.00;4908672;29;20043;-75
2023/10/22 09:07:50;;;;;;;0.00;0.00;;;;;;;34.03;33.10;99267.78;4922020;29;20122;-75
2023/10/22 09:10:32;;;;;;;0.00;0.00;;;;;;;34.47;32.55;99265.09;4907818;29;20019;-74
2023/10/22 09:13:18;;;;;;;0.00;0.00;;;;;;;34.86;32.23;99279.19;4904707;29;20416;-74
2023/10/22 09:15:47;;;;;;;0.00;0.00;;;;;;;33.43;30.98;99277.72;4924312;29;20023;-75
2023/10/22 09:18:15;;;;;;;0.00;0.00;;;;;;;30.01;36.39;99266.41;4908071;29;20043;-74
2023/10/22 09:20:41;;;;;;;0.00;0.00;;;;;;;27.04;41.63;99277.16;4921268;29;20576;-75
2023/10/22 09:23:21;;;;;;;0.00;0.00;;;;;;;24.88;42.73;99264.50;4906633;29;20094;-74
2023/10/22 09:25:51;;;;;;;0.00;0.00;;;;;;;23.42;44.39;99279.59;4921579;29;20047;-75
2023/10/22 09:28:26;;;;;;;0.00;0.00;;;;;;;23.88;43.02;99279.28;4896863;29;20083;-74
2023/10/22 09:31:01;;;;;;;0.00;0.00;;;;;;;27.27;38.86;99246.59;4905599;29;20047;-74
2023/10/22 09:33:40;;;;;;;0.00;0.00;;;;;;;31.44;33.21;99279.09;4924373;29;20435;-73
2023/10/22 09:36:07;;;;;;;0.00;0.00;;;;;;;33.44;30.81;99293.47;4911748;29;20047;-73
2023/10/22 09:38:48;;;;;;;0.00;0.00;;;;;;;34.19;30.10;99292.38;4919249;29;20032;-73
2023/10/22 09:41:27;;;;;;;0.00;0.00;;;;;;;32.74;31.71;99297.84;4894335;29;20042;-74
2023/10/22 09:43:54;;;;;;;0.00;0.00;;;;;;;31.33;32.26;99289.81;4923999;29;20027;-74
2023/10/22 09:46:21;;;;;;;0.00;0.00;;;;;;;29.53;36.18;99278.78;4927671;29;20035;-72
2023/10/22 09:48:58;;;;;;;0.00;0.00;;;;;;;32.11;31.66;99294.13;4923011;29;20030;-73
2023/10/22 09:51:30;;;;;;;0.00;0.00;;;;;;;34.32;29.28;99298.06;4911955;29;20087;-74
2023/10/22 09:54:02;;;;;;;0.00;0.00;;;;;;;35.33;28.15;99306.69;4941761;28;20055;-74
2023/10/22 09:56:32;;;;;;;0.00;0.00;;;;;;;34.92;27.59;99285.84;4946230;28;20765;-75
2023/10/22 09:59:03;;;;;;;0.00;0.00;;;;;;;34.23;27.79;99307.22;4957397;28;20034;-74
2023/10/22 10:01:33;;;;;;;0.00;0.00;;;;;;;34.20;27.92;99296.78;4954530;28;20121;-73
2023/10/22 10:04:05;;;;;;;0.00;0.00;;;;;;;35.04;27.53;99295.56;4941201;29;20023;-74
2023/10/22 10:06:33;;;;;;;0.00;0.00;;;;;;;36.39;25.50;99304.16;4940491;28;20363;-74
2023/10/22 10:09:02;;;;;;;0.00;0.00;;;;;;;36.88;24.91;99297.56;4931902;28;20035;-74
2023/10/22 10:11:31;;;;;;;0.00;0.00;;;;;;;36.66;24.37;99289.94;4932314;28;20063;-74
2023/10/22 10:13:58;;;;;;;0.00;0.00;;;;;;;37.33;23.86;99295.19;4940331;29;20037;-75
2023/10/22 10:16:24;;;;;;;0.00;0.00;;;;;;;39.69;22.62;99309.34;4937444;28;20118;-74
2023/10/22 10:19:04;;;;;;;0.00;0.00;;;;;;;40.48;20.41;99293.38;4945771;29;20445;-74
2023/10/22 10:21:47;;;;;;;0.00;0.00;;;;;;;41.48;19.89;99302.81;4945677;29;20118;-74
2023/10/22 10:24:20;;;;;;;0.00;0.00;;;;;;;40.71;19.57;99305.09;4940901;29;20074;-74
2023/10/22 10:26:50;;;;;;;0.00;0.00;;;;;;;39.64;19.70;99290.03;4947584;28;20062;-73
2023/10/22 10:29:24;;;;;;;0.00;0.00;;;;;;;38.91;20.98;99303.75;4942021;29;20269;-73
2023/10/22 10:31:51;;;;;;;0.00;0.00;;;;;;;39.31;21.19;99307.34;4940823;29;20035;-73
2023/10/22 10:34:21;;;;;;;0.00;0.00;;;;;;;40.56;19.63;99304.41;4943714;29;20043;-74
2023/10/22 10:36:49;;;;;;;0.00;0.00;;;;;;;42.09;17.12;99303.81;4936087;28;20027;-73
2023/10/22 10:39:37;;;;;;;0.00;0.00;;;;;;;43.28;13.65;99306.41;4945000;29;20086;-74
2023/10/22 10:42:03;;;;;;;0.00;0.00;;;;;;;42.04;14.30;99307.41;4940271;28;20032;-73
2023/10/22 10:44:32;;;;;;;0.00;0.00;;;;;;;42.24;16.20;99317.25;4938818;29;20513;-74
2023/10/22 10:47:25;;;;;;;0.00;0.00;;;;;;;41.31;15.46;99316.19;4932887;28;20109;-73
2023/10/22 10:50:03;;;;;;;0.00;0.00;;;;;;;42.38;16.25;99307.66;4936274;28;20352;-74
2023/10/22 10:52:30;;;;;;;0.00;0.00;;;;;;;42.48;14.57;99313.94;4942326;28;20134;-72
2023/10/22 10:55:15;;;;;;;0.00;0.00;;;;;;;41.65;14.89;99317.31;4904315;29;20098;-74
2023/10/22 10:57:50;;;;;;;0.00;0.00;;;;;;;39.90;15.34;99306.56;4924254;29;20031;-74
2023/10/22 11:00:27;;;;;;;0.00;0.00;;;;;;;38.60;16.58;99293.50;4921383;29;20031;-75
2023/10/22 11:02:53;;;;;;;0.00;0.00;;;;;;;38.71;17.05;99295.81;4941450;29;20031;-74
2023/10/22 11:08:22;;;;;;;0.00;0.00;;;;;;;39.03;16.26;99316.97;4921870;29;20483;-72
2023/10/22 11:10:50;;;;;;;0.00;0.00;;;;;;;39.29;16.65;99322.16;4921884;29;20035;-74
2023/10/22 11:13:44;;;;;;;;;;;;;;;;;;;;;
2023/10/22 11:16:13;;;;;;;0.00;0.00;;;;;;;40.10;15.83;99320.13;4919044;29;20050;-72
2023/10/22 11:18:58;;;;;;;0.00;0.00;;;;;;;38.71;16.45;99308.03;4941157;28;20474;-73
2023/10/22 11:21:23;;;;;;;0.00;0.00;;;;;;;39.73;16.12;99315.63;4943082;28;20038;-75
2023/10/22 11:23:49;;;;;;;0.00;0.00;;;;;;;40.92;15.87;99330.88;4924956;28;20027;-74
2023/10/22 11:26:16;;;;;;;0.00;0.00;;;;;;;40.70;15.12;99329.31;4902226;29;20043;-74
2023/10/22 11:28:41;;;;;;;0.00;0.00;;;;;;;35.60;18.87;99336.50;4933224;29;20123;-74
2023/10/22 11:31:23;;;;;;;0.00;0.00;;;;;;;33.07;21.12;99318.38;4900316;29;20122;-72
2023/10/22 11:33:48;;;;;;;0.00;0.00;;;;;;;34.44;21.03;99339.78;4926069;29;20028;-74
2023/10/22 11:36:18;;;;;;;0.00;0.00;;;;;;;36.68;19.52;99310.22;4925180;29;20431;-73
2023/10/22 11:38:43;;;;;;;0.00;0.00;;;;;;;35.77;18.69;99300.13;4939238;29;20038;-72
2023/10/22 11:41:18;;;;;;;0.00;0.00;;;;;;;31.99;23.06;99324.72;4927066;29;20389;-73